createdAt,value
2022-10-07T00:00:50.215Z,5.07
2022-10-07T00:01:50.181Z,5.09
2022-10-07T00:02:49.077Z,5.12
2022-10-07T00:03:49.076Z,5.16
2022-10-07T00:04:49.070Z,5.17
2022-10-07T00:05:49.020Z,5.17
2022-10-07T00:06:50.032Z,5.17
2022-10-07T00:07:48.981Z,5.19
2022-10-07T00:08:49.149Z,5.22
2022-10-07T00:09:48.969Z,5.25
2022-10-07T00:10:48.971Z,5.27
2022-10-07T00:11:48.929Z,5.25
2022-10-07T00:12:48.930Z,5.25
2022-10-07T00:13:48.910Z,5.23
2022-10-07T00:14:48.931Z,5.23
2022-10-07T00:15:49.038Z,5.23
2022-10-07T00:16:49.672Z,5.22
2022-10-07T00:17:48.838Z,5.17
2022-10-07T00:18:49.972Z,5.16
2022-10-07T00:19:49.008Z,5.13
2022-10-07T00:20:48.928Z,5.12
2022-10-07T00:21:48.930Z,5.10
2022-10-07T00:22:48.803Z,5.10
2022-10-07T00:23:48.912Z,5.09
2022-10-07T00:24:48.817Z,5.09
2022-10-07T00:25:48.764Z,5.09
2022-10-07T00:26:49.713Z,5.05
2022-10-07T00:27:49.014Z,5.04
2022-10-07T00:28:48.735Z,5.05
2022-10-07T00:29:48.739Z,5.09
2022-10-07T00:30:48.743Z,5.09
2022-10-07T00:31:51.392Z,5.05
2022-10-07T00:32:48.718Z,5.04
2022-10-07T00:33:49.553Z,5.02
2022-10-07T00:34:49.483Z,4.98
2022-10-07T00:35:48.917Z,4.96
2022-10-07T00:36:48.608Z,4.96
2022-10-07T00:37:48.580Z,4.99
2022-10-07T00:38:48.715Z,5.01
2022-10-07T00:39:49.126Z,5.01
2022-10-07T00:40:50.021Z,4.99
2022-10-07T00:41:49.298Z,4.98
2022-10-07T00:42:48.652Z,4.95
2022-10-07T00:43:49.357Z,4.95
2022-10-07T00:44:48.671Z,4.92
2022-10-07T00:45:49.467Z,4.92
2022-10-07T00:46:48.511Z,4.91
2022-10-07T00:47:49.235Z,4.89
2022-10-07T00:48:48.661Z,4.89
2022-10-07T00:49:48.435Z,4.86
2022-10-07T00:50:48.401Z,4.88
2022-10-07T00:51:49.848Z,4.89
2022-10-07T00:52:48.377Z,4.88
2022-10-07T00:53:48.561Z,4.84
2022-10-07T00:54:48.378Z,4.79
2022-10-07T00:55:49.490Z,4.77
2022-10-07T00:56:48.781Z,4.72
2022-10-07T00:57:48.302Z,4.69
2022-10-07T00:58:48.309Z,4.65
2022-10-07T00:59:49.099Z,4.61
2022-10-07T01:00:48.377Z,4.61
2022-10-07T01:01:48.762Z,4.64
2022-10-07T01:02:48.322Z,4.69
2022-10-07T01:03:48.363Z,4.72
2022-10-07T01:04:49.162Z,4.75
2022-10-07T01:05:48.381Z,4.73
2022-10-07T01:06:48.211Z,4.70
2022-10-07T01:07:48.366Z,4.65
2022-10-07T01:08:48.201Z,4.67
2022-10-07T01:09:48.281Z,4.65
2022-10-07T01:10:48.242Z,4.64
2022-10-07T01:11:48.199Z,4.62
2022-10-07T01:12:48.811Z,4.61
2022-10-07T01:13:48.402Z,4.59
2022-10-07T01:14:48.123Z,4.59
2022-10-07T01:15:48.082Z,4.59
2022-10-07T01:16:48.127Z,4.62
2022-10-07T01:17:48.184Z,4.65
2022-10-07T01:18:48.271Z,4.65
2022-10-07T01:19:48.180Z,4.67
2022-10-07T01:20:49.132Z,4.67
2022-10-07T01:21:48.112Z,4.64
2022-10-07T01:22:48.042Z,4.61
2022-10-07T01:23:48.029Z,4.58
2022-10-07T01:24:47.994Z,4.58
2022-10-07T01:25:47.969Z,4.58
2022-10-07T01:26:49.076Z,4.61
2022-10-07T01:27:47.966Z,4.59
2022-10-07T01:28:47.928Z,4.61
2022-10-07T01:29:48.787Z,4.59
2022-10-07T01:30:47.923Z,4.61
2022-10-07T01:31:48.115Z,4.59
2022-10-07T01:32:48.117Z,4.57
2022-10-07T01:33:47.843Z,4.58
2022-10-07T01:34:47.829Z,4.55
2022-10-07T01:35:47.840Z,4.57
2022-10-07T01:36:47.828Z,4.57
2022-10-07T01:37:48.226Z,4.54
2022-10-07T01:38:47.988Z,4.57
2022-10-07T01:39:47.807Z,4.58
2022-10-07T01:40:47.737Z,4.59
2022-10-07T01:41:48.654Z,4.62
2022-10-07T01:42:47.819Z,4.64
2022-10-07T01:43:47.800Z,4.65
2022-10-07T01:44:47.729Z,4.69
2022-10-07T01:45:47.747Z,4.72
2022-10-07T01:46:47.680Z,4.72
2022-10-07T01:47:47.721Z,4.73
2022-10-07T01:48:48.500Z,4.72
2022-10-07T01:49:47.782Z,4.70
2022-10-07T01:50:47.649Z,4.70
2022-10-07T01:51:47.613Z,4.69
2022-10-07T01:52:47.598Z,4.64
2022-10-07T01:53:47.625Z,4.59
2022-10-07T01:54:47.623Z,4.62
2022-10-07T01:55:47.645Z,4.61
2022-10-07T01:56:47.609Z,4.61
2022-10-07T01:57:47.984Z,4.62
2022-10-07T01:58:47.519Z,4.61
2022-10-07T01:59:47.497Z,4.65
2022-10-07T02:00:47.479Z,4.65
2022-10-07T02:01:47.626Z,4.62
2022-10-07T02:02:47.458Z,4.61
2022-10-07T02:03:47.629Z,4.58
2022-10-07T02:04:48.924Z,4.54
2022-10-07T02:05:47.482Z,4.50
2022-10-07T02:06:48.383Z,4.47
2022-10-07T02:07:47.600Z,4.43
2022-10-07T02:08:47.580Z,4.43
2022-10-07T02:09:48.544Z,4.43
2022-10-07T02:10:47.349Z,4.43
2022-10-07T02:11:47.375Z,4.43
2022-10-07T02:12:47.321Z,4.47
2022-10-07T02:13:47.392Z,4.46
2022-10-07T02:14:47.362Z,4.50
2022-10-07T02:15:47.385Z,4.47
2022-10-07T02:16:48.362Z,4.46
2022-10-07T02:17:47.775Z,4.43
2022-10-07T02:18:47.304Z,4.39
2022-10-07T02:19:48.084Z,4.39
2022-10-07T02:20:48.499Z,4.40
2022-10-07T02:21:48.405Z,4.40
2022-10-07T02:22:47.265Z,4.39
2022-10-07T02:23:47.211Z,4.34
2022-10-07T02:24:47.191Z,4.33
2022-10-07T02:25:47.183Z,4.32
2022-10-07T02:26:47.175Z,4.28
2022-10-07T02:27:47.369Z,4.25
2022-10-07T02:28:47.152Z,4.22
2022-10-07T02:29:48.144Z,4.19
2022-10-07T02:30:47.178Z,4.19
2022-10-07T02:31:47.095Z,4.18
2022-10-07T02:32:47.097Z,4.16
2022-10-07T02:33:47.130Z,4.18
2022-10-07T02:34:47.118Z,4.15
2022-10-07T02:35:47.044Z,4.14
2022-10-07T02:36:47.095Z,4.10
2022-10-07T02:37:47.331Z,4.14
2022-10-07T02:38:47.026Z,4.10
2022-10-07T02:39:47.066Z,4.07
2022-10-07T02:40:46.979Z,4.04
2022-10-07T02:41:47.411Z,4.03
2022-10-07T02:42:47.343Z,4.04
2022-10-07T02:43:46.939Z,4.07
2022-10-07T02:44:46.918Z,4.08
2022-10-07T02:45:46.968Z,4.08
2022-10-07T02:46:48.053Z,4.12
2022-10-07T02:47:47.355Z,4.18
2022-10-07T02:48:46.908Z,4.22
2022-10-07T02:49:46.868Z,4.26
2022-10-07T02:50:47.049Z,4.26
2022-10-07T02:51:46.890Z,4.28
2022-10-07T02:52:46.820Z,4.28
2022-10-07T02:53:46.799Z,4.26
2022-10-07T02:54:46.800Z,4.25
2022-10-07T02:55:47.695Z,4.25
2022-10-07T02:56:46.769Z,4.26
2022-10-07T02:57:48.285Z,4.25
2022-10-07T02:58:47.059Z,4.24
2022-10-07T02:59:47.858Z,4.21
2022-10-07T03:00:47.732Z,4.22
2022-10-07T03:01:46.889Z,4.22
2022-10-07T03:02:46.723Z,4.22
2022-10-07T03:03:46.719Z,4.22
2022-10-07T03:04:46.659Z,4.19
2022-10-07T03:05:48.139Z,4.14
2022-10-07T03:06:47.651Z,4.12
2022-10-07T03:07:46.929Z,4.07
2022-10-07T03:08:46.599Z,4.04
2022-10-07T03:09:46.643Z,4.01
2022-10-07T03:10:46.598Z,4.01
2022-10-07T03:11:46.580Z,3.98
2022-10-07T03:12:46.597Z,3.98
2022-10-07T03:13:46.535Z,3.94
2022-10-07T03:14:46.533Z,3.89
2022-10-07T03:15:46.559Z,3.86
2022-10-07T03:16:46.582Z,3.82
2022-10-07T03:17:47.023Z,3.79
2022-10-07T03:18:46.944Z,3.83
2022-10-07T03:19:46.501Z,3.83
2022-10-07T03:20:46.554Z,3.83
2022-10-07T03:21:46.941Z,3.83
2022-10-07T03:22:46.579Z,3.88
2022-10-07T03:23:46.496Z,3.86
2022-10-07T03:24:46.537Z,3.86
2022-10-07T03:25:46.751Z,3.83
2022-10-07T03:26:47.283Z,3.83
2022-10-07T03:27:46.814Z,3.86
2022-10-07T03:28:46.340Z,3.89
2022-10-07T03:29:46.380Z,3.89
2022-10-07T03:30:46.440Z,3.94
2022-10-07T03:31:46.372Z,3.97
2022-10-07T03:32:46.372Z,3.96
2022-10-07T03:33:46.322Z,3.97
2022-10-07T03:34:46.342Z,4.01
2022-10-07T03:35:46.292Z,4.03
2022-10-07T03:36:46.877Z,4.06
2022-10-07T03:37:46.763Z,4.04
2022-10-07T03:38:46.293Z,4.03
2022-10-07T03:39:46.242Z,4.01
2022-10-07T03:40:46.225Z,3.98
2022-10-07T03:41:46.233Z,3.96
2022-10-07T03:42:46.185Z,3.94
2022-10-07T03:43:47.184Z,3.97
2022-10-07T03:44:46.156Z,4.00
2022-10-07T03:45:46.147Z,4.01
2022-10-07T03:46:46.227Z,4.03
2022-10-07T03:47:46.619Z,4.03
2022-10-07T03:48:46.085Z,4.00
2022-10-07T03:49:46.804Z,4.01
2022-10-07T03:50:46.078Z,4.03
2022-10-07T03:51:46.130Z,4.04
2022-10-07T03:52:46.063Z,4.01
2022-10-07T03:53:46.043Z,4.00
2022-10-07T03:54:46.085Z,3.98
2022-10-07T03:55:47.055Z,3.96
2022-10-07T03:56:46.253Z,3.92
2022-10-07T03:57:46.701Z,3.88
2022-10-07T03:58:46.196Z,3.85
2022-10-07T03:59:47.184Z,3.80
2022-10-07T04:00:45.925Z,3.80
2022-10-07T04:01:45.998Z,3.83
2022-10-07T04:02:46.174Z,3.96
2022-10-07T04:03:46.846Z,4.01
2022-10-07T04:04:46.004Z,4.00
2022-10-07T04:05:45.895Z,4.00
2022-10-07T04:06:47.053Z,3.96
2022-10-07T04:07:46.516Z,3.94
2022-10-07T04:08:45.958Z,3.89
2022-10-07T04:09:45.848Z,3.90
2022-10-07T04:10:45.829Z,3.89
2022-10-07T04:11:45.867Z,3.88
2022-10-07T04:12:45.831Z,3.88
2022-10-07T04:13:45.779Z,3.85
2022-10-07T04:14:45.766Z,3.80
2022-10-07T04:15:45.956Z,3.76
2022-10-07T04:16:45.883Z,3.72
2022-10-07T04:17:46.072Z,3.68
2022-10-07T04:18:46.898Z,3.64
2022-10-07T04:19:45.706Z,3.60
2022-10-07T04:20:45.747Z,3.58
2022-10-07T04:21:45.652Z,3.54
2022-10-07T04:22:45.661Z,3.52
2022-10-07T04:23:45.722Z,3.47
2022-10-07T04:24:45.636Z,3.46
2022-10-07T04:25:46.192Z,3.46
2022-10-07T04:26:45.638Z,3.43
2022-10-07T04:27:51.858Z,3.44
2022-10-07T04:28:46.638Z,3.46
2022-10-07T04:29:45.594Z,3.46
2022-10-07T04:30:45.545Z,3.43
2022-10-07T04:31:45.644Z,3.40
2022-10-07T04:32:45.586Z,3.40
2022-10-07T04:33:45.529Z,3.36
2022-10-07T04:34:45.769Z,3.40
2022-10-07T04:35:45.575Z,3.40
2022-10-07T04:36:45.635Z,3.42
2022-10-07T04:37:46.677Z,3.40
2022-10-07T04:38:45.530Z,3.42
2022-10-07T04:40:00.263Z,3.43
2022-10-07T04:40:47.350Z,3.40
2022-10-07T04:41:46.227Z,3.40
2022-10-07T04:42:45.551Z,3.34
2022-10-07T04:43:46.155Z,3.31
2022-10-07T04:44:45.499Z,3.28
2022-10-07T04:45:45.380Z,3.25
2022-10-07T04:46:45.465Z,3.25
2022-10-07T04:47:46.291Z,3.23
2022-10-07T04:48:45.410Z,3.24
2022-10-07T04:49:45.322Z,3.24
2022-10-07T04:50:45.783Z,3.23
2022-10-07T04:51:45.816Z,3.21
2022-10-07T04:52:45.332Z,3.18
2022-10-07T04:53:46.152Z,3.16
2022-10-07T04:54:46.415Z,3.12
2022-10-07T04:55:45.765Z,3.12
2022-10-07T04:56:45.397Z,3.12
2022-10-07T04:57:46.591Z,3.10
2022-10-07T04:58:46.133Z,3.09
2022-10-07T04:59:45.691Z,3.06
2022-10-07T05:00:46.742Z,3.05
2022-10-07T05:01:46.190Z,3.05
2022-10-07T05:02:45.355Z,3.02
2022-10-07T05:03:46.161Z,3.03
2022-10-07T05:04:46.064Z,3.00
2022-10-07T05:05:45.134Z,3.02
2022-10-07T05:06:46.076Z,3.03
2022-10-07T05:07:45.452Z,3.03
2022-10-07T05:08:45.084Z,3.02
2022-10-07T05:09:45.293Z,3.02
2022-10-07T05:10:45.042Z,3.06
2022-10-07T05:11:45.045Z,3.05
2022-10-07T05:12:45.134Z,3.03
2022-10-07T05:13:45.048Z,3.03
2022-10-07T05:14:45.010Z,3.05
2022-10-07T05:15:45.324Z,3.06
2022-10-07T05:16:45.994Z,3.03
2022-10-07T05:17:45.320Z,3.03
2022-10-07T05:18:45.032Z,3.06
2022-10-07T05:19:45.106Z,3.03
2022-10-07T05:20:44.905Z,3.00
2022-10-07T05:21:45.873Z,2.98
2022-10-07T05:22:44.922Z,3.00
2022-10-07T05:23:45.779Z,2.98
2022-10-07T05:24:45.144Z,3.00
2022-10-07T05:25:44.917Z,2.98
2022-10-07T05:26:45.307Z,3.00
2022-10-07T05:27:45.026Z,3.02
2022-10-07T05:28:45.875Z,3.07
2022-10-07T05:29:44.935Z,3.09
2022-10-07T05:30:45.674Z,3.10
2022-10-07T05:31:45.382Z,3.09
2022-10-07T05:32:44.760Z,3.06
2022-10-07T05:33:44.750Z,3.05
2022-10-07T05:34:44.762Z,3.03
2022-10-07T05:35:45.645Z,3.03
2022-10-07T05:36:44.967Z,3.02
2022-10-07T05:37:50.114Z,3.00
2022-10-07T05:38:45.808Z,3.02
2022-10-07T05:39:45.011Z,3.03
2022-10-07T05:40:44.638Z,3.05
2022-10-07T05:41:46.121Z,3.05
2022-10-07T05:42:45.000Z,3.05
2022-10-07T05:43:45.391Z,3.07
2022-10-07T05:44:44.612Z,3.09
2022-10-07T05:45:44.682Z,3.12
2022-10-07T05:46:44.608Z,3.18
2022-10-07T05:47:44.929Z,3.28
2022-10-07T05:48:44.547Z,3.34
2022-10-07T05:49:44.610Z,3.42
2022-10-07T05:50:45.179Z,3.44
2022-10-07T05:51:44.493Z,3.44
2022-10-07T05:52:44.526Z,3.43
2022-10-07T05:53:44.479Z,3.42
2022-10-07T05:54:44.917Z,3.39
2022-10-07T05:55:44.939Z,3.34
2022-10-07T05:56:44.489Z,3.33
2022-10-07T05:57:46.237Z,3.33
2022-10-07T05:58:44.455Z,3.30
2022-10-07T05:59:44.558Z,3.30
2022-10-07T06:00:45.112Z,3.31
2022-10-07T06:01:44.557Z,3.31
2022-10-07T06:02:44.609Z,3.33
2022-10-07T06:03:44.388Z,3.36
2022-10-07T06:04:45.242Z,3.40
2022-10-07T06:05:44.343Z,3.42
2022-10-07T06:06:44.320Z,3.43
2022-10-07T06:07:44.574Z,3.43
2022-10-07T06:08:44.272Z,3.49
2022-10-07T06:09:45.455Z,3.49
2022-10-07T06:10:44.450Z,3.50
2022-10-07T06:11:44.288Z,3.52
2022-10-07T06:12:44.272Z,3.52
2022-10-07T06:13:44.211Z,3.52
2022-10-07T06:14:44.212Z,3.53
2022-10-07T06:15:44.320Z,3.52
2022-10-07T06:16:44.364Z,3.52
2022-10-07T06:17:44.659Z,3.57
2022-10-07T06:18:44.531Z,3.58
2022-10-07T06:19:44.240Z,3.62
2022-10-07T06:20:44.149Z,3.65
2022-10-07T06:21:44.217Z,3.68
2022-10-07T06:22:44.113Z,3.75
2022-10-07T06:23:44.276Z,3.79
2022-10-07T06:24:44.176Z,3.86
2022-10-07T06:25:44.090Z,3.92
2022-10-07T06:26:44.641Z,3.97
2022-10-07T06:27:45.740Z,4.03
2022-10-07T06:28:44.114Z,4.07
2022-10-07T06:29:44.011Z,4.08
2022-10-07T06:30:44.067Z,4.16
2022-10-07T06:31:44.005Z,4.19
2022-10-07T06:32:44.011Z,4.25
2022-10-07T06:33:43.961Z,4.34
2022-10-07T06:34:43.942Z,4.42
2022-10-07T06:35:44.073Z,4.51
2022-10-07T06:36:43.976Z,4.55
2022-10-07T06:37:44.368Z,4.61
2022-10-07T06:38:43.925Z,4.65
2022-10-07T06:39:44.086Z,4.72
2022-10-07T06:40:43.891Z,4.79
2022-10-07T06:41:44.946Z,4.86
2022-10-07T06:42:43.925Z,4.95
2022-10-07T06:43:43.843Z,5.04
2022-10-07T06:44:43.869Z,5.16
2022-10-07T06:45:43.913Z,5.20
2022-10-07T06:46:43.919Z,5.28
2022-10-07T06:47:44.098Z,5.38
2022-10-07T06:48:43.775Z,5.43
2022-10-07T06:49:43.788Z,5.50
2022-10-07T06:50:43.824Z,5.60
2022-10-07T06:51:44.344Z,5.71
2022-10-07T06:52:44.331Z,5.81
2022-10-07T06:53:43.700Z,5.91
2022-10-07T06:54:43.738Z,6.00
2022-10-07T06:55:44.307Z,6.06
2022-10-07T06:56:43.774Z,6.14
2022-10-07T06:57:46.080Z,6.22
2022-10-07T06:58:43.757Z,6.30
2022-10-07T06:59:44.757Z,6.38
2022-10-07T07:00:44.646Z,6.46
2022-10-07T07:01:43.641Z,6.53
2022-10-07T07:02:43.740Z,6.65
2022-10-07T07:03:43.605Z,6.69
2022-10-07T07:04:43.635Z,6.72
2022-10-07T07:05:45.752Z,6.76
2022-10-07T07:06:43.674Z,6.83
2022-10-07T07:07:44.096Z,6.91
2022-10-07T07:08:43.503Z,7.02
2022-10-07T07:09:44.305Z,7.15
2022-10-07T07:10:43.560Z,7.19
2022-10-07T07:11:43.497Z,7.26
2022-10-07T07:12:45.356Z,7.35
2022-10-07T07:13:45.942Z,7.42
2022-10-07T07:14:43.446Z,7.53
2022-10-07T07:15:43.441Z,7.58
2022-10-07T07:16:43.578Z,7.67
2022-10-07T07:17:43.958Z,7.82
2022-10-07T07:18:43.466Z,7.90
2022-10-07T07:19:44.359Z,7.99
2022-10-07T07:20:43.350Z,8.08
2022-10-07T07:21:45.541Z,8.17
2022-10-07T07:22:43.604Z,8.22
2022-10-07T07:23:43.333Z,8.28
2022-10-07T07:24:43.311Z,8.30
2022-10-07T07:25:43.331Z,8.35
2022-10-07T07:26:43.317Z,8.47
2022-10-07T07:27:43.832Z,8.53
2022-10-07T07:28:43.341Z,8.55
2022-10-07T07:29:43.408Z,8.57
2022-10-07T07:30:43.258Z,8.63
2022-10-07T07:31:43.315Z,8.68
2022-10-07T07:32:43.264Z,8.71
2022-10-07T07:33:43.306Z,8.76
2022-10-07T07:34:43.430Z,8.83
2022-10-07T07:35:43.159Z,8.88
2022-10-07T07:36:43.199Z,8.93
2022-10-07T07:37:44.876Z,8.96
2022-10-07T07:38:44.111Z,9.01
2022-10-07T07:39:43.231Z,9.06
2022-10-07T07:40:43.879Z,9.12
2022-10-07T07:41:43.174Z,9.16
2022-10-07T07:42:44.200Z,9.21
2022-10-07T07:43:43.162Z,9.28
2022-10-07T07:44:43.097Z,9.34
2022-10-07T07:45:43.146Z,9.39
2022-10-07T07:46:43.110Z,9.45
2022-10-07T07:47:43.352Z,9.49
2022-10-07T07:48:44.146Z,9.56
2022-10-07T07:49:42.975Z,9.58
2022-10-07T07:50:43.011Z,9.64
2022-10-07T07:51:42.999Z,9.67
2022-10-07T07:52:42.998Z,9.70
2022-10-07T07:53:42.960Z,9.71
2022-10-07T07:54:42.918Z,9.78
2022-10-07T07:55:43.988Z,9.81
2022-10-07T07:56:42.914Z,9.85
2022-10-07T07:57:43.091Z,9.86
2022-10-07T07:58:42.904Z,9.88
2022-10-07T07:59:42.901Z,9.86
2022-10-07T08:00:42.864Z,9.93
2022-10-07T08:01:42.947Z,9.99
2022-10-07T08:02:44.386Z,10.09
2022-10-07T08:03:43.724Z,10.17
2022-10-07T08:04:42.801Z,10.24
2022-10-07T08:05:42.771Z,10.30
2022-10-07T08:06:43.734Z,10.36
2022-10-07T08:07:43.188Z,10.39
2022-10-07T08:08:42.914Z,10.42
2022-10-07T08:09:42.965Z,10.42
2022-10-07T08:10:42.749Z,10.46
2022-10-07T08:11:42.792Z,10.55
2022-10-07T08:12:42.686Z,10.60
2022-10-07T08:13:42.788Z,10.71
2022-10-07T08:14:42.704Z,10.77
2022-10-07T08:15:42.681Z,10.81
2022-10-07T08:16:43.307Z,10.83
2022-10-07T08:17:42.850Z,10.84
2022-10-07T08:18:42.717Z,10.89
2022-10-07T08:19:43.507Z,10.91
2022-10-07T08:20:42.601Z,10.94
2022-10-07T08:21:42.628Z,10.94
2022-10-07T08:22:43.053Z,10.98
2022-10-07T08:23:43.342Z,11.03
2022-10-07T08:24:42.624Z,11.09
2022-10-07T08:25:43.663Z,11.14
2022-10-07T08:26:42.585Z,11.17
2022-10-07T08:27:43.909Z,11.20
2022-10-07T08:28:43.370Z,11.25
2022-10-07T08:29:42.786Z,11.27
2022-10-07T08:30:43.117Z,11.32
2022-10-07T08:31:42.647Z,11.34
2022-10-07T08:32:42.414Z,11.36
2022-10-07T08:33:42.918Z,11.39
2022-10-07T08:34:42.455Z,11.41
2022-10-07T08:35:42.382Z,11.46
2022-10-07T08:36:42.390Z,11.47
2022-10-07T08:37:42.616Z,11.53
2022-10-07T08:38:43.435Z,11.59
2022-10-07T08:39:42.542Z,11.62
2022-10-07T08:40:42.320Z,11.64
2022-10-07T08:41:42.438Z,11.67
2022-10-07T08:42:42.364Z,11.70
2022-10-07T08:43:42.330Z,11.71
2022-10-07T08:44:42.364Z,11.72
2022-10-07T08:45:43.277Z,11.72
2022-10-07T08:46:42.294Z,11.72
2022-10-07T08:47:43.002Z,11.74
2022-10-07T08:48:42.247Z,11.74
2022-10-07T08:49:42.194Z,11.74
2022-10-07T08:50:42.178Z,11.82
2022-10-07T08:51:42.405Z,11.85
2022-10-07T08:52:42.145Z,11.97
2022-10-07T08:53:43.200Z,12.08
2022-10-07T08:54:42.268Z,12.15
2022-10-07T08:55:43.346Z,12.21
2022-10-07T08:56:42.103Z,12.29
2022-10-07T08:57:42.574Z,12.37
2022-10-07T08:58:42.324Z,12.42
2022-10-07T08:59:42.057Z,12.46
2022-10-07T09:00:42.069Z,12.51
2022-10-07T09:01:42.107Z,12.54
2022-10-07T09:02:43.191Z,12.56
2022-10-07T09:03:42.209Z,12.59
2022-10-07T09:04:43.439Z,12.66
2022-10-07T09:05:42.897Z,12.69
2022-10-07T09:06:42.975Z,12.75
2022-10-07T09:07:42.253Z,12.82
2022-10-07T09:08:42.006Z,12.88
2022-10-07T09:09:41.931Z,12.96
2022-10-07T09:10:41.924Z,13.06
2022-10-07T09:11:42.044Z,13.09
2022-10-07T09:12:41.921Z,13.12
2022-10-07T09:13:42.175Z,13.14
2022-10-07T09:14:42.830Z,13.17
2022-10-07T09:15:41.898Z,13.18
2022-10-07T09:16:42.808Z,13.24
2022-10-07T09:17:41.839Z,13.32
2022-10-07T09:18:41.878Z,13.38
2022-10-07T09:19:41.941Z,13.41
2022-10-07T09:20:41.787Z,13.44
2022-10-07T09:21:41.862Z,13.46
2022-10-07T09:22:41.756Z,13.51
2022-10-07T09:23:41.774Z,13.61
2022-10-07T09:24:41.791Z,13.70
2022-10-07T09:25:41.930Z,13.73
2022-10-07T09:26:42.922Z,13.79
2022-10-07T09:27:41.774Z,13.83
2022-10-07T09:28:42.272Z,13.88
2022-10-07T09:29:41.770Z,13.87
2022-10-07T09:30:42.644Z,13.87
2022-10-07T09:31:41.630Z,13.87
2022-10-07T09:32:41.719Z,13.89
2022-10-07T09:33:42.761Z,13.92
2022-10-07T09:34:42.674Z,13.95
2022-10-07T09:35:42.574Z,14.01
2022-10-07T09:36:41.596Z,14.07
2022-10-07T09:37:41.680Z,14.12
2022-10-07T09:38:41.753Z,14.16
2022-10-07T09:39:41.594Z,14.20
2022-10-07T09:40:42.603Z,14.21
2022-10-07T09:41:41.527Z,14.24
2022-10-07T09:42:41.495Z,14.28
2022-10-07T09:43:41.606Z,14.32
2022-10-07T09:44:41.967Z,14.38
2022-10-07T09:45:42.634Z,14.38
2022-10-07T09:46:41.537Z,14.43
2022-10-07T09:47:41.500Z,14.46
2022-10-07T09:48:41.579Z,14.49
2022-10-07T09:49:41.447Z,14.44
2022-10-07T09:50:42.162Z,14.47
2022-10-07T09:51:41.453Z,14.50
2022-10-07T09:52:42.121Z,14.53
2022-10-07T09:53:42.803Z,14.54
2022-10-07T09:54:42.343Z,14.62
2022-10-07T09:55:41.416Z,14.69
2022-10-07T09:56:42.096Z,14.83
2022-10-07T09:57:42.679Z,14.91
2022-10-07T09:58:42.412Z,14.98
2022-10-07T09:59:41.319Z,15.01
2022-10-07T10:00:41.434Z,15.05
2022-10-07T10:01:41.388Z,15.06
2022-10-07T10:02:41.374Z,15.03
2022-10-07T10:03:41.274Z,15.09
2022-10-07T10:04:41.244Z,15.11
2022-10-07T10:05:42.135Z,15.11
2022-10-07T10:06:41.201Z,15.12
2022-10-07T10:07:41.319Z,15.13
2022-10-07T10:08:41.321Z,15.15
2022-10-07T10:09:41.153Z,15.20
2022-10-07T10:10:41.254Z,15.28
2022-10-07T10:11:42.123Z,15.38
2022-10-07T10:12:42.844Z,15.42
2022-10-07T10:13:41.139Z,15.48
2022-10-07T10:14:41.321Z,15.51
2022-10-07T10:15:41.288Z,15.54
2022-10-07T10:16:41.716Z,15.56
2022-10-07T10:17:41.065Z,15.57
2022-10-07T10:18:41.148Z,15.59
2022-10-07T10:19:41.258Z,15.61
2022-10-07T10:20:41.842Z,15.66
2022-10-07T10:21:41.026Z,15.64
2022-10-07T10:22:41.008Z,15.64
2022-10-07T10:23:42.105Z,15.64
2022-10-07T10:24:41.005Z,15.63
2022-10-07T10:25:41.968Z,15.72
2022-10-07T10:26:40.966Z,15.70
2022-10-07T10:27:41.673Z,15.76
2022-10-07T10:28:41.122Z,15.82
2022-10-07T10:29:41.067Z,15.81
2022-10-07T10:30:41.854Z,15.86
2022-10-07T10:31:40.978Z,15.93
2022-10-07T10:32:41.724Z,15.93
2022-10-07T10:33:40.842Z,16.00
2022-10-07T10:34:41.759Z,16.03
2022-10-07T10:35:40.803Z,16.11
2022-10-07T10:36:41.700Z,16.07
2022-10-07T10:37:40.878Z,16.09
2022-10-07T10:38:40.914Z,16.11
2022-10-07T10:39:40.745Z,16.11
2022-10-07T10:40:40.959Z,16.11
2022-10-07T10:41:40.709Z,16.07
2022-10-07T10:42:40.701Z,16.09
2022-10-07T10:43:40.726Z,16.14
2022-10-07T10:44:41.580Z,16.16
2022-10-07T10:45:41.010Z,16.15
2022-10-07T10:46:40.711Z,16.16
2022-10-07T10:47:41.011Z,16.20
2022-10-07T10:48:41.711Z,16.23
2022-10-07T10:49:40.663Z,16.23
2022-10-07T10:50:40.612Z,16.31
2022-10-07T10:51:40.594Z,16.35
2022-10-07T10:52:40.591Z,16.35
2022-10-07T10:53:40.608Z,16.37
2022-10-07T10:54:40.775Z,16.42
2022-10-07T10:55:40.574Z,16.50
2022-10-07T10:56:41.032Z,16.56
2022-10-07T10:57:40.981Z,16.65
2022-10-07T10:58:40.533Z,16.68
2022-10-07T10:59:40.987Z,16.67
2022-10-07T11:00:41.597Z,16.67
2022-10-07T11:01:40.540Z,16.67
2022-10-07T11:02:40.585Z,16.65
2022-10-07T11:03:40.971Z,16.58
2022-10-07T11:04:40.465Z,16.56
2022-10-07T11:05:40.433Z,16.55
2022-10-07T11:06:40.516Z,16.50
2022-10-07T11:07:40.494Z,16.53
2022-10-07T11:08:40.513Z,16.60
2022-10-07T11:09:40.395Z,16.62
2022-10-07T11:10:40.608Z,16.63
2022-10-07T11:11:41.558Z,16.71
2022-10-07T11:12:40.340Z,16.74
2022-10-07T11:13:41.879Z,16.71
2022-10-07T11:14:40.339Z,16.77
2022-10-07T11:15:40.299Z,16.88
2022-10-07T11:16:40.284Z,16.92
2022-10-07T11:17:40.316Z,16.90
2022-10-07T11:18:40.386Z,16.85
2022-10-07T11:19:40.249Z,16.90
2022-10-07T11:20:44.653Z,16.90
2022-10-07T11:21:41.148Z,16.89
2022-10-07T11:22:41.165Z,16.92
2022-10-07T11:23:41.417Z,16.99
2022-10-07T11:24:40.212Z,17.04
2022-10-07T11:25:41.230Z,17.08
2022-10-07T11:26:40.131Z,17.10
2022-10-07T11:27:41.073Z,17.14
2022-10-07T11:28:40.357Z,17.18
2022-10-07T11:29:41.358Z,17.28
2022-10-07T11:30:41.266Z,17.30
2022-10-07T11:31:40.390Z,17.38
2022-10-07T11:32:40.145Z,17.41
2022-10-07T11:33:40.070Z,17.36
2022-10-07T11:34:40.315Z,17.36
2022-10-07T11:35:40.048Z,17.29
2022-10-07T11:36:41.195Z,17.35
2022-10-07T11:37:40.132Z,17.44
2022-10-07T11:38:40.003Z,17.54
2022-10-07T11:40:08.627Z,17.59
2022-10-07T11:40:40.085Z,17.50
2022-10-07T11:41:40.715Z,17.46
2022-10-07T11:42:39.967Z,17.44
2022-10-07T11:43:40.318Z,17.46
2022-10-07T11:44:39.918Z,17.51
2022-10-07T11:45:40.848Z,17.43
2022-10-07T11:46:40.818Z,17.47
2022-10-07T11:47:40.038Z,17.48
2022-10-07T11:48:39.866Z,17.53
2022-10-07T11:49:40.109Z,17.57
2022-10-07T11:50:40.150Z,17.63
2022-10-07T11:51:39.863Z,17.66
2022-10-07T11:52:40.682Z,17.67
2022-10-07T11:53:39.790Z,17.64
2022-10-07T11:54:40.754Z,17.64
2022-10-07T11:55:39.733Z,17.70
2022-10-07T11:56:40.509Z,17.76
2022-10-07T11:57:39.812Z,17.84
2022-10-07T11:58:39.845Z,17.87
2022-10-07T11:59:40.648Z,17.79
2022-10-07T12:00:39.882Z,17.69
2022-10-07T12:01:39.863Z,17.69
2022-10-07T12:02:39.734Z,17.71
2022-10-07T12:03:39.788Z,17.74
2022-10-07T12:04:39.861Z,17.82
2022-10-07T12:05:40.469Z,17.84
2022-10-07T12:06:39.941Z,17.87
2022-10-07T12:07:39.969Z,17.89
2022-10-07T12:08:40.681Z,17.87
2022-10-07T12:09:40.587Z,17.82
2022-10-07T12:10:40.495Z,17.78
2022-10-07T12:11:39.566Z,17.74
2022-10-07T12:12:39.562Z,17.73
2022-10-07T12:13:39.543Z,17.73
2022-10-07T12:14:39.506Z,17.76
2022-10-07T12:15:40.523Z,17.73
2022-10-07T12:16:39.522Z,17.79
2022-10-07T12:17:40.011Z,17.78
2022-10-07T12:18:39.476Z,17.76
2022-10-07T12:19:40.658Z,17.82
2022-10-07T12:20:39.689Z,17.88
2022-10-07T12:21:40.298Z,17.84
2022-10-07T12:22:40.400Z,17.82
2022-10-07T12:23:39.427Z,17.81
2022-10-07T12:24:39.451Z,17.76
2022-10-07T12:25:39.724Z,17.78
2022-10-07T12:26:39.348Z,17.73
2022-10-07T12:27:40.002Z,17.69
2022-10-07T12:28:39.399Z,17.69
2022-10-07T12:29:39.329Z,17.71
2022-10-07T12:30:39.277Z,17.78
2022-10-07T12:31:39.380Z,17.79
2022-10-07T12:32:40.424Z,17.79
2022-10-07T12:33:39.382Z,17.82
2022-10-07T12:34:39.310Z,17.84
2022-10-07T12:35:39.190Z,17.81
2022-10-07T12:36:39.859Z,17.82
2022-10-07T12:37:39.952Z,17.79
2022-10-07T12:38:39.182Z,17.78
2022-10-07T12:39:39.233Z,17.74
2022-10-07T12:40:39.165Z,17.79
2022-10-07T12:41:40.491Z,17.85
2022-10-07T12:42:39.212Z,17.85
2022-10-07T12:43:39.890Z,17.85
2022-10-07T12:44:39.222Z,17.89
2022-10-07T12:45:39.121Z,17.85
2022-10-07T12:46:39.067Z,17.81
2022-10-07T12:47:39.044Z,17.81
2022-10-07T12:48:39.076Z,17.76
2022-10-07T12:49:39.822Z,17.79
2022-10-07T12:50:39.199Z,17.85
2022-10-07T12:51:39.278Z,17.87
2022-10-07T12:52:39.014Z,17.89
2022-10-07T12:53:39.050Z,17.87
2022-10-07T12:54:39.044Z,17.84
2022-10-07T12:55:39.000Z,17.84
2022-10-07T12:56:39.830Z,17.85
2022-10-07T12:57:38.898Z,17.84
2022-10-07T12:58:38.932Z,17.81
2022-10-07T12:59:38.856Z,17.79
2022-10-07T13:00:38.883Z,17.74
2022-10-07T13:01:39.010Z,17.79
2022-10-07T13:02:38.887Z,17.81
2022-10-07T13:03:39.009Z,17.76
2022-10-07T13:04:39.027Z,17.79
2022-10-07T13:05:38.850Z,17.78
2022-10-07T13:06:39.727Z,17.76
2022-10-07T13:07:38.770Z,17.78
2022-10-07T13:08:38.764Z,17.82